sensor_id;sensor_type;location;lat;lon;timestamp;temperature;humidity
6752;DHT22;3413;47.680;9.166;2024-03-06T01:21:00;10.80;71.20
6752;DHT22;3413;47.680;9.166;2024-03-06T01:27:49;10.70;71.00
6752;DHT22;3413;47.680;9.166;2024-03-06T01:34:40;10.60;70.90
6752;DHT22;3413;47.680;9.166;2024-03-06T01:54:34;10.50;71.20
6752;DHT22;3413;47.680;9.166;2024-03-06T02:01:43;10.60;71.00
6752;DHT22;3413;47.680;9.166;2024-03-06T02:08:35;10.40;70.90
6752;DHT22;3413;47.680;9.166;2024-03-06T02:15:25;10.40;70.90
6752;DHT22;3413;47.680;9.166;2024-03-06T02:22:05;10.40;71.60
6752;DHT22;3413;47.680;9.166;2024-03-06T02:28:52;10.30;70.90
6752;DHT22;3413;47.680;9.166;2024-03-06T02:35:42;10.20;70.90
6752;DHT22;3413;47.680;9.166;2024-03-06T02:42:27;10.20;70.90
6752;DHT22;3413;47.680;9.166;2024-03-06T02:48:58;10.00;70.90
6752;DHT22;3413;47.680;9.166;2024-03-06T02:55:25;9.90;72.00
6752;DHT22;3413;47.680;9.166;2024-03-06T03:01:22;10.00;71.00
6752;DHT22;3413;47.680;9.166;2024-03-06T03:07:43;10.00;70.80
6752;DHT22;3413;47.680;9.166;2024-03-06T03:13:46;10.10;71.00
6752;DHT22;3413;47.680;9.166;2024-03-06T03:20:22;10.10;71.00
6752;DHT22;3413;47.680;9.166;2024-03-06T03:26:32;10.10;71.00
6752;DHT22;3413;47.680;9.166;2024-03-06T03:33:04;10.10;70.80
6752;DHT22;3413;47.680;9.166;2024-03-06T03:39:21;10.00;71.00
6752;DHT22;3413;47.680;9.166;2024-03-06T03:45:19;9.90;72.10
6752;DHT22;3413;47.680;9.166;2024-03-06T03:51:40;9.70;72.00
6752;DHT22;3413;47.680;9.166;2024-03-06T03:57:28;9.80;72.20
6752;DHT22;3413;47.680;9.166;2024-03-06T04:03:29;9.90;72.30
6752;DHT22;3413;47.680;9.166;2024-03-06T04:09:48;9.90;72.10
6752;DHT22;3413;47.680;9.166;2024-03-06T04:16:05;10.00;71.10
6752;DHT22;3413;47.680;9.166;2024-03-06T04:22:29;10.00;71.20
6752;DHT22;3413;47.680;9.166;2024-03-06T04:28:36;9.90;72.10
6752;DHT22;3413;47.680;9.166;2024-03-06T04:34:28;9.80;72.40
6752;DHT22;3413;47.680;9.166;2024-03-06T04:40:55;9.80;72.30
6752;DHT22;3413;47.680;9.166;2024-03-06T04:47:20;9.80;72.50
6752;DHT22;3413;47.680;9.166;2024-03-06T04:53:43;9.90;72.30
6752;DHT22;3413;47.680;9.166;2024-03-06T05:00:06;9.80;72.20
6752;DHT22;3413;47.680;9.166;2024-03-06T05:06:26;9.80;72.20
6752;DHT22;3413;47.680;9.166;2024-03-06T05:12:25;9.70;72.20
6752;DHT22;3413;47.680;9.166;2024-03-06T05:18:34;9.40;72.20
6752;DHT22;3413;47.680;9.166;2024-03-06T05:24:37;9.50;72.40
6752;DHT22;3413;47.680;9.166;2024-03-06T05:30:49;9.60;72.30
6752;DHT22;3413;47.680;9.166;2024-03-06T05:36:32;9.60;72.20
6752;DHT22;3413;47.680;9.166;2024-03-06T05:42:43;9.60;71.80
6752;DHT22;3413;47.680;9.166;2024-03-06T05:53:55;9.40;71.60
6752;DHT22;3413;47.680;9.166;2024-03-06T06:05:05;9.20;71.30
6752;DHT22;3413;47.680;9.166;2024-03-06T06:11:05;9.20;71.30
6752;DHT22;3413;47.680;9.166;2024-03-06T06:16:57;9.20;71.30
6752;DHT22;3413;47.680;9.166;2024-03-06T06:22:47;8.90;71.10
6752;DHT22;3413;47.680;9.166;2024-03-06T06:39:43;8.80;70.90
6752;DHT22;3413;47.680;9.166;2024-03-06T06:45:20;8.70;70.70
6752;DHT22;3413;47.680;9.166;2024-03-06T06:50:45;8.50;70.70
6752;DHT22;3413;47.680;9.166;2024-03-06T06:56:08;8.40;71.20
6752;DHT22;3413;47.680;9.166;2024-03-06T07:01:13;8.60;70.80
6752;DHT22;3413;47.680;9.166;2024-03-06T07:06:24;8.70;70.80
6752;DHT22;3413;47.680;9.166;2024-03-06T07:11:32;8.80;70.90
6752;DHT22;3413;47.680;9.166;2024-03-06T07:16:47;8.80;70.90
6752;DHT22;3413;47.680;9.166;2024-03-06T07:21:49;8.80;71.00
6752;DHT22;3413;47.680;9.166;2024-03-06T07:26:51;8.70;71.30
6752;DHT22;3413;47.680;9.166;2024-03-06T07:31:53;8.80;71.60
6752;DHT22;3413;47.680;9.166;2024-03-06T07:36:55;8.80;71.30
6752;DHT22;3413;47.680;9.166;2024-03-06T07:41:57;8.80;71.40
6752;DHT22;3413;47.680;9.166;2024-03-06T07:46:59;8.80;71.40
6752;DHT22;3413;47.680;9.166;2024-03-06T07:52:01;8.80;71.30
6752;DHT22;3413;47.680;9.166;2024-03-06T07:57:03;8.80;71.40
6752;DHT22;3413;47.680;9.166;2024-03-06T08:02:05;8.80;71.30
6752;DHT22;3413;47.680;9.166;2024-03-06T08:07:08;8.90;71.50
6752;DHT22;3413;47.680;9.166;2024-03-06T08:12:10;8.70;71.40
6752;DHT22;3413;47.680;9.166;2024-03-06T08:17:12;8.80;71.60
6752;DHT22;3413;47.680;9.166;2024-03-06T08:22:14;8.90;71.80
6752;DHT22;3413;47.680;9.166;2024-03-06T08:27:16;9.00;71.80
6752;DHT22;3413;47.680;9.166;2024-03-06T08:32:18;8.90;71.80
6752;DHT22;3413;47.680;9.166;2024-03-06T08:37:20;9.00;71.70
6752;DHT22;3413;47.680;9.166;2024-03-06T08:42:22;9.00;71.50
6752;DHT22;3413;47.680;9.166;2024-03-06T08:47:24;9.10;71.70
6752;DHT22;3413;47.680;9.166;2024-03-06T08:52:26;9.20;72.00
6752;DHT22;3413;47.680;9.166;2024-03-06T08:57:28;9.00;71.90
6752;DHT22;3413;47.680;9.166;2024-03-06T09:02:32;9.10;72.30
6752;DHT22;3413;47.680;9.166;2024-03-06T09:07:34;9.20;72.80
6752;DHT22;3413;47.680;9.166;2024-03-06T09:12:42;9.20;72.20
6752;DHT22;3413;47.680;9.166;2024-03-06T09:17:44;9.40;72.30
6752;DHT22;3413;47.680;9.166;2024-03-06T09:22:47;9.50;72.30
6752;DHT22;3413;47.680;9.166;2024-03-06T09:27:49;9.40;72.30
6752;DHT22;3413;47.680;9.166;2024-03-06T09:32:51;9.30;72.60
6752;DHT22;3413;47.680;9.166;2024-03-06T09:37:54;9.30;72.80
6752;DHT22;3413;47.680;9.166;2024-03-06T09:42:58;9.40;72.90
6752;DHT22;3413;47.680;9.166;2024-03-06T09:48:00;9.50;72.80
6752;DHT22;3413;47.680;9.166;2024-03-06T09:53:02;9.50;72.50
6752;DHT22;3413;47.680;9.166;2024-03-06T09:58:06;9.60;72.60
6752;DHT22;3413;47.680;9.166;2024-03-06T10:03:10;9.70;72.40
6752;DHT22;3413;47.680;9.166;2024-03-06T10:08:13;9.60;72.40
6752;DHT22;3413;47.680;9.166;2024-03-06T10:13:22;9.60;72.60
6752;DHT22;3413;47.680;9.166;2024-03-06T10:18:27;9.60;72.50
6752;DHT22;3413;47.680;9.166;2024-03-06T10:23:29;9.60;72.80
6752;DHT22;3413;47.680;9.166;2024-03-06T10:28:32;9.80;73.00
6752;DHT22;3413;47.680;9.166;2024-03-06T10:33:34;9.90;73.70
6752;DHT22;3413;47.680;9.166;2024-03-06T10:38:36;9.90;72.90
6752;DHT22;3413;47.680;9.166;2024-03-06T10:43:44;9.80;73.00
6752;DHT22;3413;47.680;9.166;2024-03-06T10:48:48;9.80;73.10
6752;DHT22;3413;47.680;9.166;2024-03-06T10:53:51;9.70;73.00
6752;DHT22;3413;47.680;9.166;2024-03-06T10:58:56;9.80;73.10
6752;DHT22;3413;47.680;9.166;2024-03-06T11:04:00;9.70;73.00
6752;DHT22;3413;47.680;9.166;2024-03-06T11:09:03;9.70;73.20
6752;DHT22;3413;47.680;9.166;2024-03-06T11:14:05;9.80;73.10
6752;DHT22;3413;47.680;9.166;2024-03-06T11:19:10;9.70;73.30
6752;DHT22;3413;47.680;9.166;2024-03-06T11:24:12;9.70;73.60
6752;DHT22;3413;47.680;9.166;2024-03-06T11:29:19;9.70;73.40
6752;DHT22;3413;47.680;9.166;2024-03-06T11:34:22;9.70;73.40
6752;DHT22;3413;47.680;9.166;2024-03-06T11:39:24;9.80;73.50
6752;DHT22;3413;47.680;9.166;2024-03-06T11:44:29;9.80;73.30
6752;DHT22;3413;47.680;9.166;2024-03-06T11:49:32;9.90;73.30
6752;DHT22;3413;47.680;9.166;2024-03-06T11:54:36;9.80;73.40
6752;DHT22;3413;47.680;9.166;2024-03-06T11:59:38;9.80;73.70
6752;DHT22;3413;47.680;9.166;2024-03-06T12:04:40;9.80;73.70
6752;DHT22;3413;47.680;9.166;2024-03-06T12:09:43;9.90;73.70
6752;DHT22;3413;47.680;9.166;2024-03-06T12:14:58;9.80;73.40
6752;DHT22;3413;47.680;9.166;2024-03-06T12:20:01;9.70;73.50
6752;DHT22;3413;47.680;9.166;2024-03-06T12:25:04;9.60;73.60
6752;DHT22;3413;47.680;9.166;2024-03-06T12:30:10;9.60;73.50
6752;DHT22;3413;47.680;9.166;2024-03-06T12:35:26;9.60;73.50
6752;DHT22;3413;47.680;9.166;2024-03-06T12:40:28;9.70;73.50
6752;DHT22;3413;47.680;9.166;2024-03-06T12:45:30;9.70;73.60
6752;DHT22;3413;47.680;9.166;2024-03-06T12:50:32;9.80;73.70
6752;DHT22;3413;47.680;9.166;2024-03-06T12:55:34;9.70;73.90
6752;DHT22;3413;47.680;9.166;2024-03-06T13:00:37;9.90;74.00
6752;DHT22;3413;47.680;9.166;2024-03-06T13:05:39;9.90;74.00
6752;DHT22;3413;47.680;9.166;2024-03-06T13:10:42;9.90;73.80
6752;DHT22;3413;47.680;9.166;2024-03-06T13:15:44;10.00;72.60
6752;DHT22;3413;47.680;9.166;2024-03-06T13:20:48;10.00;72.50
6752;DHT22;3413;47.680;9.166;2024-03-06T13:25:50;9.90;73.40
6752;DHT22;3413;47.680;9.166;2024-03-06T13:30:52;9.80;73.60
6752;DHT22;3413;47.680;9.166;2024-03-06T13:35:54;9.90;73.50
6752;DHT22;3413;47.680;9.166;2024-03-06T13:40:57;9.80;73.60
6752;DHT22;3413;47.680;9.166;2024-03-06T13:45:59;9.80;73.70
6752;DHT22;3413;47.680;9.166;2024-03-06T13:51:01;9.80;73.50
6752;DHT22;3413;47.680;9.166;2024-03-06T13:56:04;9.70;73.00
6752;DHT22;3413;47.680;9.166;2024-03-06T14:01:06;9.70;73.70
6752;DHT22;3413;47.680;9.166;2024-03-06T14:06:12;9.60;73.80
6752;DHT22;3413;47.680;9.166;2024-03-06T14:11:15;9.50;73.80
6752;DHT22;3413;47.680;9.166;2024-03-06T14:16:18;9.50;74.00
6752;DHT22;3413;47.680;9.166;2024-03-06T14:21:26;9.60;74.10
6752;DHT22;3413;47.680;9.166;2024-03-06T14:26:34;9.60;73.90
6752;DHT22;3413;47.680;9.166;2024-03-06T14:31:41;9.60;73.90
6752;DHT22;3413;47.680;9.166;2024-03-06T14:37:09;9.60;74.00
6752;DHT22;3413;47.680;9.166;2024-03-06T14:42:14;9.50;74.00
6752;DHT22;3413;47.680;9.166;2024-03-06T14:47:21;9.50;74.00
6752;DHT22;3413;47.680;9.166;2024-03-06T14:52:27;9.60;74.10
6752;DHT22;3413;47.680;9.166;2024-03-06T14:57:36;9.60;74.00
6752;DHT22;3413;47.680;9.166;2024-03-06T15:02:40;9.60;74.00
6752;DHT22;3413;47.680;9.166;2024-03-06T15:07:44;9.60;74.10
6752;DHT22;3413;47.680;9.166;2024-03-06T15:12:48;9.60;74.10
6752;DHT22;3413;47.680;9.166;2024-03-06T15:18:00;9.50;74.20
6752;DHT22;3413;47.680;9.166;2024-03-06T15:23:08;9.40;74.20
6752;DHT22;3413;47.680;9.166;2024-03-06T15:28:22;9.40;74.20
6752;DHT22;3413;47.680;9.166;2024-03-06T15:33:31;9.50;74.10
6752;DHT22;3413;47.680;9.166;2024-03-06T15:38:36;9.50;73.90
6752;DHT22;3413;47.680;9.166;2024-03-06T15:43:39;9.60;73.90
6752;DHT22;3413;47.680;9.166;2024-03-06T15:48:41;9.50;73.80
6752;DHT22;3413;47.680;9.166;2024-03-06T15:53:45;9.60;74.00
6752;DHT22;3413;47.680;9.166;2024-03-06T15:58:55;9.50;73.60
6752;DHT22;3413;47.680;9.166;2024-03-06T16:03:58;9.40;73.50
6752;DHT22;3413;47.680;9.166;2024-03-06T16:09:27;9.30;73.40
6752;DHT22;3413;47.680;9.166;2024-03-06T16:14:32;9.30;73.50
6752;DHT22;3413;47.680;9.166;2024-03-06T16:19:35;9.30;73.60
6752;DHT22;3413;47.680;9.166;2024-03-06T16:24:47;9.30;73.70
6752;DHT22;3413;47.680;9.166;2024-03-06T16:29:50;9.10;73.20
6752;DHT22;3413;47.680;9.166;2024-03-06T16:34:53;9.00;73.60
6752;DHT22;3413;47.680;9.166;2024-03-06T16:40:19;8.90;73.70
6752;DHT22;3413;47.680;9.166;2024-03-06T16:46:54;8.90;73.90
6752;DHT22;3413;47.680;9.166;2024-03-06T16:53:47;9.00;73.50
6752;DHT22;3413;47.680;9.166;2024-03-06T20:11:03;8.50;73.80
6752;DHT22;3413;47.680;9.166;2024-03-06T20:49:14;8.90;74.00
6752;DHT22;3413;47.680;9.166;2024-03-06T20:54:23;9.10;74.10
6752;DHT22;3413;47.680;9.166;2024-03-06T20:59:25;9.10;74.40
6752;DHT22;3413;47.680;9.166;2024-03-06T21:04:27;9.20;73.40
6752;DHT22;3413;47.680;9.166;2024-03-06T21:09:28;9.10;73.40
6752;DHT22;3413;47.680;9.166;2024-03-06T21:14:31;9.20;73.60
6752;DHT22;3413;47.680;9.166;2024-03-06T21:19:35;9.20;73.50
6752;DHT22;3413;47.680;9.166;2024-03-06T21:24:39;9.20;73.60
6752;DHT22;3413;47.680;9.166;2024-03-06T21:29:41;9.30;73.70
6752;DHT22;3413;47.680;9.166;2024-03-06T21:34:43;9.10;73.40
6752;DHT22;3413;47.680;9.166;2024-03-06T21:39:46;8.80;73.40
6752;DHT22;3413;47.680;9.166;2024-03-06T21:44:50;8.70;73.60
6752;DHT22;3413;47.680;9.166;2024-03-06T21:49:52;8.50;73.60
6752;DHT22;3413;47.680;9.166;2024-03-06T21:54:54;8.40;73.60
6752;DHT22;3413;47.680;9.166;2024-03-06T21:59:56;8.40;73.50
6752;DHT22;3413;47.680;9.166;2024-03-06T22:04:58;8.50;73.40
6752;DHT22;3413;47.680;9.166;2024-03-06T22:10:01;8.40;73.40
6752;DHT22;3413;47.680;9.166;2024-03-06T22:15:03;8.40;73.60
6752;DHT22;3413;47.680;9.166;2024-03-06T22:20:08;8.40;73.60
6752;DHT22;3413;47.680;9.166;2024-03-06T22:25:11;8.40;73.60
6752;DHT22;3413;47.680;9.166;2024-03-06T22:30:13;8.30;73.40
6752;DHT22;3413;47.680;9.166;2024-03-06T22:35:17;8.30;73.40
6752;DHT22;3413;47.680;9.166;2024-03-06T22:40:19;8.20;73.40
6752;DHT22;3413;47.680;9.166;2024-03-06T22:45:22;8.30;73.40
6752;DHT22;3413;47.680;9.166;2024-03-06T22:50:26;8.30;73.60
6752;DHT22;3413;47.680;9.166;2024-03-06T22:55:28;8.30;73.70
6752;DHT22;3413;47.680;9.166;2024-03-06T23:00:30;8.30;73.70
6752;DHT22;3413;47.680;9.166;2024-03-06T23:05:32;8.40;73.80
6752;DHT22;3413;47.680;9.166;2024-03-06T23:10:34;8.50;73.80
6752;DHT22;3413;47.680;9.166;2024-03-06T23:15:36;8.50;73.60
6752;DHT22;3413;47.680;9.166;2024-03-06T23:20:38;8.40;73.70
6752;DHT22;3413;47.680;9.166;2024-03-06T23:25:40;8.40;73.90
6752;DHT22;3413;47.680;9.166;2024-03-06T23:30:42;8.50;73.80
6752;DHT22;3413;47.680;9.166;2024-03-06T23:35:44;8.60;74.00
6752;DHT22;3413;47.680;9.166;2024-03-06T23:40:46;8.60;74.10
6752;DHT22;3413;47.680;9.166;2024-03-06T23:45:48;8.70;74.10
6752;DHT22;3413;47.680;9.166;2024-03-06T23:50:50;8.80;74.20
6752;DHT22;3413;47.680;9.166;2024-03-06T23:55:52;8.80;74.10
